sensor_id;sensor_type;location;lat;lon;timestamp;P1;durP1;ratioP1;P2;durP2;ratioP2
62927;SDS011;51070;52.236;-0.892;2024-02-16T00:00:23;6.60;;;5.20;;
62927;SDS011;51070;52.236;-0.892;2024-02-16T00:02:50;6.60;;;4.70;;
62927;SDS011;51070;52.236;-0.892;2024-02-16T00:05:16;6.50;;;5.20;;
62927;SDS011;51070;52.236;-0.892;2024-02-16T00:07:41;5.90;;;4.90;;
62927;SDS011;51070;52.236;-0.892;2024-02-16T00:10:07;7.10;;;5.60;;
62927;SDS011;51070;52.236;-0.892;2024-02-16T00:12:34;7.70;;;5.10;;
62927;SDS011;51070;52.236;-0.892;2024-02-16T00:15:00;7.30;;;5.30;;
62927;SDS011;51070;52.236;-0.892;2024-02-16T00:17:27;7.20;;;5.40;;
62927;SDS011;51070;52.236;-0.892;2024-02-16T00:19:53;7.70;;;5.30;;
62927;SDS011;51070;52.236;-0.892;2024-02-16T00:22:19;7.50;;;5.20;;
62927;SDS011;51070;52.236;-0.892;2024-02-16T00:24:45;5.30;;;4.70;;
62927;SDS011;51070;52.236;-0.892;2024-02-16T00:27:11;4.30;;;3.90;;
62927;SDS011;51070;52.236;-0.892;2024-02-16T00:29:36;4.10;;;3.70;;
62927;SDS011;51070;52.236;-0.892;2024-02-16T00:32:04;6.00;;;4.30;;
62927;SDS011;51070;52.236;-0.892;2024-02-16T00:34:31;4.90;;;4.00;;
62927;SDS011;51070;52.236;-0.892;2024-02-16T00:36:57;4.30;;;3.60;;
62927;SDS011;51070;52.236;-0.892;2024-02-16T00:39:23;4.50;;;3.20;;
62927;SDS011;51070;52.236;-0.892;2024-02-16T00:41:50;3.20;;;2.90;;
62927;SDS011;51070;52.236;-0.892;2024-02-16T00:44:16;4.90;;;3.00;;
62927;SDS011;51070;52.236;-0.892;2024-02-16T00:46:42;4.40;;;3.70;;
62927;SDS011;51070;52.236;-0.892;2024-02-16T00:49:11;3.80;;;2.40;;
62927;SDS011;51070;52.236;-0.892;2024-02-16T00:51:37;3.00;;;2.40;;
62927;SDS011;51070;52.236;-0.892;2024-02-16T00:54:02;4.00;;;2.20;;
62927;SDS011;51070;52.236;-0.892;2024-02-16T00:56:28;2.70;;;2.00;;
62927;SDS011;51070;52.236;-0.892;2024-02-16T00:58:54;2.50;;;2.00;;
62927;SDS011;51070;52.236;-0.892;2024-02-16T01:01:20;3.00;;;1.90;;
62927;SDS011;51070;52.236;-0.892;2024-02-16T01:03:47;7.00;;;1.70;;
62927;SDS011;51070;52.236;-0.892;2024-02-16T01:06:13;1.40;;;1.30;;
62927;SDS011;51070;52.236;-0.892;2024-02-16T01:08:39;1.50;;;1.20;;
62927;SDS011;51070;52.236;-0.892;2024-02-16T01:11:04;2.20;;;1.40;;
62927;SDS011;51070;52.236;-0.892;2024-02-16T01:13:30;2.20;;;1.70;;
62927;SDS011;51070;52.236;-0.892;2024-02-16T01:15:56;1.80;;;1.40;;
62927;SDS011;51070;52.236;-0.892;2024-02-16T01:18:22;2.60;;;1.60;;
62927;SDS011;51070;52.236;-0.892;2024-02-16T01:20:47;2.60;;;1.90;;
62927;SDS011;51070;52.236;-0.892;2024-02-16T01:23:13;3.50;;;1.80;;
62927;SDS011;51070;52.236;-0.892;2024-02-16T01:25:38;2.40;;;1.80;;
62927;SDS011;51070;52.236;-0.892;2024-02-16T01:28:04;2.70;;;1.80;;
62927;SDS011;51070;52.236;-0.892;2024-02-16T01:30:29;5.00;;;2.40;;
62927;SDS011;51070;52.236;-0.892;2024-02-16T01:32:55;3.40;;;2.30;;
62927;SDS011;51070;52.236;-0.892;2024-02-16T01:35:20;2.90;;;1.90;;
62927;SDS011;51070;52.236;-0.892;2024-02-16T01:37:46;4.40;;;2.20;;
62927;SDS011;51070;52.236;-0.892;2024-02-16T01:40:12;2.20;;;1.90;;
62927;SDS011;51070;52.236;-0.892;2024-02-16T01:42:42;2.90;;;2.10;;
62927;SDS011;51070;52.236;-0.892;2024-02-16T01:45:09;2.90;;;1.90;;
62927;SDS011;51070;52.236;-0.892;2024-02-16T01:50:03;4.40;;;2.50;;
62927;SDS011;51070;52.236;-0.892;2024-02-16T01:52:30;2.70;;;2.20;;
62927;SDS011;51070;52.236;-0.892;2024-02-16T01:54:57;3.80;;;2.50;;
62927;SDS011;51070;52.236;-0.892;2024-02-16T01:57:23;3.30;;;2.40;;
62927;SDS011;51070;52.236;-0.892;2024-02-16T01:59:49;4.10;;;2.60;;
62927;SDS011;51070;52.236;-0.892;2024-02-16T02:02:15;2.80;;;2.40;;
62927;SDS011;51070;52.236;-0.892;2024-02-16T02:04:40;3.60;;;2.40;;
62927;SDS011;51070;52.236;-0.892;2024-02-16T02:07:15;4.80;;;2.00;;
62927;SDS011;51070;52.236;-0.892;2024-02-16T02:09:41;2.60;;;2.10;;
62927;SDS011;51070;52.236;-0.892;2024-02-16T02:12:08;2.50;;;1.60;;
62927;SDS011;51070;52.236;-0.892;2024-02-16T02:14:35;4.10;;;1.80;;
62927;SDS011;51070;52.236;-0.892;2024-02-16T02:17:02;3.10;;;1.40;;
62927;SDS011;51070;52.236;-0.892;2024-02-16T02:19:28;1.80;;;1.30;;
62927;SDS011;51070;52.236;-0.892;2024-02-16T02:21:55;1.90;;;1.40;;
62927;SDS011;51070;52.236;-0.892;2024-02-16T02:24:21;3.00;;;1.60;;
62927;SDS011;51070;52.236;-0.892;2024-02-16T02:26:46;2.30;;;1.20;;
62927;SDS011;51070;52.236;-0.892;2024-02-16T02:29:12;1.90;;;1.20;;
62927;SDS011;51070;52.236;-0.892;2024-02-16T02:31:37;3.10;;;1.20;;
62927;SDS011;51070;52.236;-0.892;2024-02-16T02:34:02;1.80;;;1.30;;
62927;SDS011;51070;52.236;-0.892;2024-02-16T02:36:30;1.80;;;1.10;;
62927;SDS011;51070;52.236;-0.892;2024-02-16T02:38:58;2.80;;;1.60;;
62927;SDS011;51070;52.236;-0.892;2024-02-16T02:41:23;2.80;;;1.40;;
62927;SDS011;51070;52.236;-0.892;2024-02-16T02:43:50;2.40;;;1.30;;
62927;SDS011;51070;52.236;-0.892;2024-02-16T02:46:17;2.60;;;1.30;;
62927;SDS011;51070;52.236;-0.892;2024-02-16T02:48:44;3.40;;;1.30;;
62927;SDS011;51070;52.236;-0.892;2024-02-16T02:51:10;2.70;;;1.20;;
62927;SDS011;51070;52.236;-0.892;2024-02-16T02:53:36;3.00;;;1.30;;
62927;SDS011;51070;52.236;-0.892;2024-02-16T02:56:02;2.00;;;1.20;;
62927;SDS011;51070;52.236;-0.892;2024-02-16T02:58:28;1.50;;;1.20;;
62927;SDS011;51070;52.236;-0.892;2024-02-16T03:00:54;1.70;;;1.20;;
62927;SDS011;51070;52.236;-0.892;2024-02-16T03:03:23;4.10;;;1.40;;
62927;SDS011;51070;52.236;-0.892;2024-02-16T03:08:17;1.90;;;1.10;;
62927;SDS011;51070;52.236;-0.892;2024-02-16T03:10:42;2.00;;;1.10;;
62927;SDS011;51070;52.236;-0.892;2024-02-16T03:13:09;1.70;;;1.00;;
62927;SDS011;51070;52.236;-0.892;2024-02-16T03:18:07;2.00;;;0.90;;
62927;SDS011;51070;52.236;-0.892;2024-02-16T03:20:34;1.80;;;0.90;;
62927;SDS011;51070;52.236;-0.892;2024-02-16T03:23:00;0.90;;;0.80;;
62927;SDS011;51070;52.236;-0.892;2024-02-16T03:25:26;2.00;;;1.00;;
62927;SDS011;51070;52.236;-0.892;2024-02-16T03:27:51;1.30;;;0.90;;
62927;SDS011;51070;52.236;-0.892;2024-02-16T03:30:18;1.70;;;0.90;;
62927;SDS011;51070;52.236;-0.892;2024-02-16T03:32:48;1.10;;;1.00;;
62927;SDS011;51070;52.236;-0.892;2024-02-16T03:35:17;1.20;;;0.90;;
62927;SDS011;51070;52.236;-0.892;2024-02-16T03:37:43;2.90;;;1.20;;
62927;SDS011;51070;52.236;-0.892;2024-02-16T03:40:10;1.80;;;1.30;;
62927;SDS011;51070;52.236;-0.892;2024-02-16T03:42:38;3.10;;;1.90;;
62927;SDS011;51070;52.236;-0.892;2024-02-16T03:45:05;2.40;;;1.70;;
62927;SDS011;51070;52.236;-0.892;2024-02-16T03:47:31;5.40;;;2.00;;
62927;SDS011;51070;52.236;-0.892;2024-02-16T03:49:56;2.60;;;1.80;;
62927;SDS011;51070;52.236;-0.892;2024-02-16T03:52:22;2.20;;;1.60;;
62927;SDS011;51070;52.236;-0.892;2024-02-16T03:54:47;2.10;;;1.50;;
62927;SDS011;51070;52.236;-0.892;2024-02-16T03:57:14;2.00;;;1.50;;
62927;SDS011;51070;52.236;-0.892;2024-02-16T03:59:44;2.80;;;1.50;;
62927;SDS011;51070;52.236;-0.892;2024-02-16T04:02:10;2.10;;;1.40;;
62927;SDS011;51070;52.236;-0.892;2024-02-16T04:04:37;3.10;;;1.70;;
62927;SDS011;51070;52.236;-0.892;2024-02-16T04:07:05;1.70;;;1.20;;
62927;SDS011;51070;52.236;-0.892;2024-02-16T04:09:34;1.30;;;1.10;;
62927;SDS011;51070;52.236;-0.892;2024-02-16T04:12:02;1.50;;;1.30;;
62927;SDS011;51070;52.236;-0.892;2024-02-16T04:14:29;2.80;;;1.50;;
62927;SDS011;51070;52.236;-0.892;2024-02-16T04:16:55;1.40;;;1.00;;
62927;SDS011;51070;52.236;-0.892;2024-02-16T04:19:25;3.10;;;1.40;;
62927;SDS011;51070;52.236;-0.892;2024-02-16T04:21:51;2.20;;;1.30;;
62927;SDS011;51070;52.236;-0.892;2024-02-16T04:24:16;2.80;;;1.40;;
62927;SDS011;51070;52.236;-0.892;2024-02-16T04:26:42;2.20;;;1.90;;
62927;SDS011;51070;52.236;-0.892;2024-02-16T04:29:07;1.50;;;1.40;;
62927;SDS011;51070;52.236;-0.892;2024-02-16T04:31:33;2.50;;;1.50;;
62927;SDS011;51070;52.236;-0.892;2024-02-16T04:33:58;2.00;;;1.30;;
62927;SDS011;51070;52.236;-0.892;2024-02-16T04:36:24;3.10;;;1.20;;
62927;SDS011;51070;52.236;-0.892;2024-02-16T04:38:50;1.90;;;1.00;;
62927;SDS011;51070;52.236;-0.892;2024-02-16T04:41:15;2.10;;;1.10;;
62927;SDS011;51070;52.236;-0.892;2024-02-16T04:43:41;1.50;;;1.20;;
62927;SDS011;51070;52.236;-0.892;2024-02-16T04:46:07;3.50;;;1.60;;
62927;SDS011;51070;52.236;-0.892;2024-02-16T04:48:39;2.40;;;1.60;;
62927;SDS011;51070;52.236;-0.892;2024-02-16T04:51:04;2.10;;;1.60;;
62927;SDS011;51070;52.236;-0.892;2024-02-16T04:53:31;2.00;;;1.40;;
62927;SDS011;51070;52.236;-0.892;2024-02-16T04:55:56;3.30;;;1.40;;
62927;SDS011;51070;52.236;-0.892;2024-02-16T04:58:21;2.50;;;1.60;;
62927;SDS011;51070;52.236;-0.892;2024-02-16T05:00:47;2.00;;;1.50;;
62927;SDS011;51070;52.236;-0.892;2024-02-16T05:03:12;3.10;;;1.50;;
62927;SDS011;51070;52.236;-0.892;2024-02-16T05:05:38;2.20;;;1.50;;
62927;SDS011;51070;52.236;-0.892;2024-02-16T05:08:03;2.40;;;1.80;;
62927;SDS011;51070;52.236;-0.892;2024-02-16T05:10:30;3.10;;;1.80;;
62927;SDS011;51070;52.236;-0.892;2024-02-16T05:12:56;2.80;;;1.70;;
62927;SDS011;51070;52.236;-0.892;2024-02-16T05:15:23;4.00;;;2.10;;
62927;SDS011;51070;52.236;-0.892;2024-02-16T05:17:49;2.10;;;1.40;;
62927;SDS011;51070;52.236;-0.892;2024-02-16T05:20:15;2.90;;;2.00;;
62927;SDS011;51070;52.236;-0.892;2024-02-16T05:22:43;1.90;;;1.20;;
62927;SDS011;51070;52.236;-0.892;2024-02-16T05:25:11;3.80;;;1.70;;
62927;SDS011;51070;52.236;-0.892;2024-02-16T05:27:46;4.00;;;1.60;;
62927;SDS011;51070;52.236;-0.892;2024-02-16T05:30:14;2.40;;;1.90;;
62927;SDS011;51070;52.236;-0.892;2024-02-16T05:32:41;2.80;;;1.40;;
62927;SDS011;51070;52.236;-0.892;2024-02-16T05:35:07;3.00;;;1.10;;
62927;SDS011;51070;52.236;-0.892;2024-02-16T05:37:37;2.90;;;1.30;;
62927;SDS011;51070;52.236;-0.892;2024-02-16T05:40:08;2.30;;;1.30;;
62927;SDS011;51070;52.236;-0.892;2024-02-16T05:42:44;1.80;;;1.20;;
62927;SDS011;51070;52.236;-0.892;2024-02-16T05:45:11;4.00;;;1.60;;
62927;SDS011;51070;52.236;-0.892;2024-02-16T05:47:36;4.60;;;1.50;;
62927;SDS011;51070;52.236;-0.892;2024-02-16T05:50:04;3.80;;;1.40;;
62927;SDS011;51070;52.236;-0.892;2024-02-16T05:54:57;2.10;;;1.30;;
62927;SDS011;51070;52.236;-0.892;2024-02-16T05:57:22;2.80;;;1.20;;
62927;SDS011;51070;52.236;-0.892;2024-02-16T05:59:49;3.60;;;1.60;;
62927;SDS011;51070;52.236;-0.892;2024-02-16T06:02:15;2.60;;;1.30;;
62927;SDS011;51070;52.236;-0.892;2024-02-16T06:04:40;3.40;;;1.40;;
62927;SDS011;51070;52.236;-0.892;2024-02-16T06:07:07;2.70;;;1.50;;
62927;SDS011;51070;52.236;-0.892;2024-02-16T06:09:33;1.50;;;1.00;;
62927;SDS011;51070;52.236;-0.892;2024-02-16T06:12:00;3.30;;;1.30;;
62927;SDS011;51070;52.236;-0.892;2024-02-16T06:14:29;4.20;;;1.50;;
62927;SDS011;51070;52.236;-0.892;2024-02-16T06:16:55;3.00;;;1.30;;
62927;SDS011;51070;52.236;-0.892;2024-02-16T06:19:21;2.80;;;1.30;;
62927;SDS011;51070;52.236;-0.892;2024-02-16T06:21:46;4.40;;;1.30;;
62927;SDS011;51070;52.236;-0.892;2024-02-16T06:24:12;2.60;;;1.30;;
62927;SDS011;51070;52.236;-0.892;2024-02-16T06:26:37;3.00;;;1.50;;
62927;SDS011;51070;52.236;-0.892;2024-02-16T06:29:03;5.00;;;1.70;;
62927;SDS011;51070;52.236;-0.892;2024-02-16T06:31:28;5.80;;;1.60;;
62927;SDS011;51070;52.236;-0.892;2024-02-16T06:33:53;3.90;;;1.80;;
62927;SDS011;51070;52.236;-0.892;2024-02-16T06:36:19;1.80;;;1.10;;
62927;SDS011;51070;52.236;-0.892;2024-02-16T06:38:44;2.40;;;1.20;;
62927;SDS011;51070;52.236;-0.892;2024-02-16T06:41:10;3.50;;;1.40;;
62927;SDS011;51070;52.236;-0.892;2024-02-16T06:43:38;1.80;;;1.30;;
62927;SDS011;51070;52.236;-0.892;2024-02-16T06:46:03;2.30;;;1.30;;
62927;SDS011;51070;52.236;-0.892;2024-02-16T06:48:30;4.50;;;1.50;;
62927;SDS011;51070;52.236;-0.892;2024-02-16T06:50:55;6.30;;;1.60;;
62927;SDS011;51070;52.236;-0.892;2024-02-16T06:53:20;3.80;;;1.50;;
62927;SDS011;51070;52.236;-0.892;2024-02-16T06:55:46;4.90;;;1.60;;
62927;SDS011;51070;52.236;-0.892;2024-02-16T06:58:11;2.60;;;1.50;;
62927;SDS011;51070;52.236;-0.892;2024-02-16T07:00:37;4.80;;;1.70;;
62927;SDS011;51070;52.236;-0.892;2024-02-16T07:03:03;4.80;;;1.70;;
62927;SDS011;51070;52.236;-0.892;2024-02-16T07:05:29;4.60;;;1.40;;
62927;SDS011;51070;52.236;-0.892;2024-02-16T07:07:56;3.00;;;1.60;;
62927;SDS011;51070;52.236;-0.892;2024-02-16T07:10:21;4.40;;;1.30;;
62927;SDS011;51070;52.236;-0.892;2024-02-16T07:12:47;5.50;;;1.70;;
62927;SDS011;51070;52.236;-0.892;2024-02-16T07:15:12;3.90;;;1.50;;
62927;SDS011;51070;52.236;-0.892;2024-02-16T07:17:38;6.30;;;1.50;;
62927;SDS011;51070;52.236;-0.892;2024-02-16T07:20:03;4.50;;;1.50;;
62927;SDS011;51070;52.236;-0.892;2024-02-16T07:22:33;4.40;;;1.60;;
62927;SDS011;51070;52.236;-0.892;2024-02-16T07:24:59;5.60;;;1.50;;
62927;SDS011;51070;52.236;-0.892;2024-02-16T07:27:29;6.10;;;1.80;;
62927;SDS011;51070;52.236;-0.892;2024-02-16T07:29:54;4.30;;;1.30;;
62927;SDS011;51070;52.236;-0.892;2024-02-16T07:32:20;4.10;;;1.50;;
62927;SDS011;51070;52.236;-0.892;2024-02-16T07:34:46;4.60;;;1.50;;
62927;SDS011;51070;52.236;-0.892;2024-02-16T07:37:13;3.50;;;2.10;;
62927;SDS011;51070;52.236;-0.892;2024-02-16T07:39:39;4.20;;;1.20;;
62927;SDS011;51070;52.236;-0.892;2024-02-16T07:42:06;5.50;;;1.90;;
62927;SDS011;51070;52.236;-0.892;2024-02-16T07:44:35;3.90;;;1.80;;
62927;SDS011;51070;52.236;-0.892;2024-02-16T07:47:01;2.80;;;1.60;;
62927;SDS011;51070;52.236;-0.892;2024-02-16T07:49:27;6.60;;;1.80;;
62927;SDS011;51070;52.236;-0.892;2024-02-16T07:51:52;3.30;;;1.40;;
62927;SDS011;51070;52.236;-0.892;2024-02-16T07:54:17;2.80;;;1.50;;
62927;SDS011;51070;52.236;-0.892;2024-02-16T07:56:43;6.10;;;2.20;;
62927;SDS011;51070;52.236;-0.892;2024-02-16T07:59:08;6.00;;;1.60;;
62927;SDS011;51070;52.236;-0.892;2024-02-16T08:01:34;4.60;;;1.80;;
62927;SDS011;51070;52.236;-0.892;2024-02-16T08:03:59;4.60;;;1.70;;
62927;SDS011;51070;52.236;-0.892;2024-02-16T08:06:26;6.90;;;2.00;;
62927;SDS011;51070;52.236;-0.892;2024-02-16T08:08:52;3.30;;;1.50;;
62927;SDS011;51070;52.236;-0.892;2024-02-16T08:11:18;3.20;;;1.60;;
62927;SDS011;51070;52.236;-0.892;2024-02-16T08:13:45;4.70;;;1.60;;
62927;SDS011;51070;52.236;-0.892;2024-02-16T08:16:10;3.30;;;1.30;;
62927;SDS011;51070;52.236;-0.892;2024-02-16T08:18:36;3.00;;;1.50;;
62927;SDS011;51070;52.236;-0.892;2024-02-16T08:21:01;4.10;;;1.30;;
62927;SDS011;51070;52.236;-0.892;2024-02-16T08:23:27;3.20;;;1.20;;
62927;SDS011;51070;52.236;-0.892;2024-02-16T08:25:52;8.70;;;2.40;;
62927;SDS011;51070;52.236;-0.892;2024-02-16T08:28:18;4.70;;;1.70;;
62927;SDS011;51070;52.236;-0.892;2024-02-16T08:30:43;6.30;;;1.60;;
62927;SDS011;51070;52.236;-0.892;2024-02-16T08:33:12;3.40;;;2.20;;
62927;SDS011;51070;52.236;-0.892;2024-02-16T08:35:40;5.20;;;1.80;;
62927;SDS011;51070;52.236;-0.892;2024-02-16T08:38:05;4.10;;;1.60;;
62927;SDS011;51070;52.236;-0.892;2024-02-16T08:40:35;2.20;;;1.50;;
62927;SDS011;51070;52.236;-0.892;2024-02-16T08:43:04;7.40;;;2.80;;
62927;SDS011;51070;52.236;-0.892;2024-02-16T08:45:32;12.00;;;4.00;;
62927;SDS011;51070;52.236;-0.892;2024-02-16T08:47:58;8.10;;;2.50;;
62927;SDS011;51070;52.236;-0.892;2024-02-16T08:50:23;2.40;;;1.50;;
62927;SDS011;51070;52.236;-0.892;2024-02-16T08:52:51;4.20;;;1.50;;
62927;SDS011;51070;52.236;-0.892;2024-02-16T08:55:17;8.20;;;1.60;;
62927;SDS011;51070;52.236;-0.892;2024-02-16T08:57:43;6.10;;;2.10;;
62927;SDS011;51070;52.236;-0.892;2024-02-16T09:00:09;4.50;;;1.80;;
62927;SDS011;51070;52.236;-0.892;2024-02-16T09:02:35;8.30;;;2.10;;
62927;SDS011;51070;52.236;-0.892;2024-02-16T09:05:00;5.10;;;2.70;;
62927;SDS011;51070;52.236;-0.892;2024-02-16T09:07:26;7.90;;;3.10;;
62927;SDS011;51070;52.236;-0.892;2024-02-16T09:09:54;7.40;;;2.00;;
62927;SDS011;51070;52.236;-0.892;2024-02-16T09:12:20;6.00;;;2.60;;
62927;SDS011;51070;52.236;-0.892;2024-02-16T09:14:46;4.50;;;1.50;;
62927;SDS011;51070;52.236;-0.892;2024-02-16T09:17:11;3.80;;;1.70;;
62927;SDS011;51070;52.236;-0.892;2024-02-16T09:19:38;7.80;;;2.20;;
62927;SDS011;51070;52.236;-0.892;2024-02-16T09:22:03;4.50;;;1.60;;
62927;SDS011;51070;52.236;-0.892;2024-02-16T09:24:31;5.50;;;1.20;;
62927;SDS011;51070;52.236;-0.892;2024-02-16T09:26:57;5.90;;;1.40;;
62927;SDS011;51070;52.236;-0.892;2024-02-16T09:29:26;4.40;;;1.30;;
62927;SDS011;51070;52.236;-0.892;2024-02-16T09:31:51;2.60;;;1.10;;
62927;SDS011;51070;52.236;-0.892;2024-02-16T09:34:17;5.60;;;1.20;;
62927;SDS011;51070;52.236;-0.892;2024-02-16T09:36:43;3.20;;;1.50;;
62927;SDS011;51070;52.236;-0.892;2024-02-16T09:39:08;6.90;;;1.40;;
62927;SDS011;51070;52.236;-0.892;2024-02-16T09:41:35;2.90;;;1.10;;
62927;SDS011;51070;52.236;-0.892;2024-02-16T09:44:06;6.00;;;1.80;;
62927;SDS011;51070;52.236;-0.892;2024-02-16T09:46:31;3.60;;;1.40;;
62927;SDS011;51070;52.236;-0.892;2024-02-16T09:49:02;8.10;;;1.60;;
62927;SDS011;51070;52.236;-0.892;2024-02-16T09:51:29;4.40;;;1.30;;
62927;SDS011;51070;52.236;-0.892;2024-02-16T09:53:55;2.70;;;1.40;;
62927;SDS011;51070;52.236;-0.892;2024-02-16T09:56:21;7.60;;;1.60;;
62927;SDS011;51070;52.236;-0.892;2024-02-16T09:58:47;4.30;;;1.10;;
62927;SDS011;51070;52.236;-0.892;2024-02-16T10:01:19;5.60;;;1.40;;
62927;SDS011;51070;52.236;-0.892;2024-02-16T10:03:45;2.70;;;1.00;;
62927;SDS011;51070;52.236;-0.892;2024-02-16T10:06:12;2.40;;;0.90;;
62927;SDS011;51070;52.236;-0.892;2024-02-16T10:08:47;2.20;;;1.10;;
62927;SDS011;51070;52.236;-0.892;2024-02-16T10:11:14;3.90;;;1.10;;
62927;SDS011;51070;52.236;-0.892;2024-02-16T10:13:40;5.10;;;1.40;;
62927;SDS011;51070;52.236;-0.892;2024-02-16T10:16:06;5.60;;;1.10;;
62927;SDS011;51070;52.236;-0.892;2024-02-16T10:18:34;5.30;;;0.90;;
62927;SDS011;51070;52.236;-0.892;2024-02-16T10:21:01;3.00;;;1.10;;
62927;SDS011;51070;52.236;-0.892;2024-02-16T10:23:26;6.30;;;1.20;;
62927;SDS011;51070;52.236;-0.892;2024-02-16T10:25:52;5.40;;;1.40;;
62927;SDS011;51070;52.236;-0.892;2024-02-16T10:28:19;2.60;;;0.80;;
62927;SDS011;51070;52.236;-0.892;2024-02-16T10:30:52;3.40;;;0.70;;
62927;SDS011;51070;52.236;-0.892;2024-02-16T10:33:23;3.80;;;0.90;;
62927;SDS011;51070;52.236;-0.892;2024-02-16T10:35:49;4.90;;;1.00;;
62927;SDS011;51070;52.236;-0.892;2024-02-16T10:38:17;1.80;;;0.90;;
62927;SDS011;51070;52.236;-0.892;2024-02-16T10:40:44;2.70;;;1.10;;
62927;SDS011;51070;52.236;-0.892;2024-02-16T10:43:13;2.10;;;1.30;;
62927;SDS011;51070;52.236;-0.892;2024-02-16T10:45:42;3.30;;;1.50;;
62927;SDS011;51070;52.236;-0.892;2024-02-16T10:48:10;4.20;;;0.90;;
62927;SDS011;51070;52.236;-0.892;2024-02-16T10:50:36;2.90;;;0.90;;
62927;SDS011;51070;52.236;-0.892;2024-02-16T10:53:45;2.40;;;0.80;;
62927;SDS011;51070;52.236;-0.892;2024-02-16T10:55:52;3.50;;;1.10;;
62927;SDS011;51070;52.236;-0.892;2024-02-16T10:58:18;2.30;;;0.80;;
62927;SDS011;51070;52.236;-0.892;2024-02-16T11:00:51;2.30;;;1.00;;
62927;SDS011;51070;52.236;-0.892;2024-02-16T11:03:17;3.80;;;0.90;;
62927;SDS011;51070;52.236;-0.892;2024-02-16T11:05:48;3.80;;;1.00;;
62927;SDS011;51070;52.236;-0.892;2024-02-16T11:08:15;3.00;;;1.00;;
62927;SDS011;51070;52.236;-0.892;2024-02-16T11:11:01;3.40;;;1.40;;
62927;SDS011;51070;52.236;-0.892;2024-02-16T11:13:33;5.00;;;1.40;;
62927;SDS011;51070;52.236;-0.892;2024-02-16T11:16:01;3.80;;;0.80;;
62927;SDS011;51070;52.236;-0.892;2024-02-16T11:18:31;3.70;;;0.60;;
62927;SDS011;51070;52.236;-0.892;2024-02-16T11:21:01;2.50;;;0.70;;
62927;SDS011;51070;52.236;-0.892;2024-02-16T11:23:29;1.10;;;0.80;;
62927;SDS011;51070;52.236;-0.892;2024-02-16T11:26:02;3.00;;;1.40;;
62927;SDS011;51070;52.236;-0.892;2024-02-16T11:28:33;2.90;;;0.70;;
62927;SDS011;51070;52.236;-0.892;2024-02-16T11:30:59;1.90;;;0.80;;
62927;SDS011;51070;52.236;-0.892;2024-02-16T11:33:25;2.80;;;1.10;;
62927;SDS011;51070;52.236;-0.892;2024-02-16T11:35:55;3.50;;;0.80;;
62927;SDS011;51070;52.236;-0.892;2024-02-16T11:38:22;3.00;;;1.10;;
62927;SDS011;51070;52.236;-0.892;2024-02-16T11:40:56;3.20;;;0.90;;
62927;SDS011;51070;52.236;-0.892;2024-02-16T11:43:23;2.20;;;0.80;;
62927;SDS011;51070;52.236;-0.892;2024-02-16T11:45:49;2.00;;;0.90;;
62927;SDS011;51070;52.236;-0.892;2024-02-16T11:48:21;1.90;;;1.00;;
62927;SDS011;51070;52.236;-0.892;2024-02-16T11:50:48;1.80;;;0.60;;
62927;SDS011;51070;52.236;-0.892;2024-02-16T11:53:30;2.00;;;0.90;;
62927;SDS011;51070;52.236;-0.892;2024-02-16T11:55:56;2.80;;;0.80;;
62927;SDS011;51070;52.236;-0.892;2024-02-16T11:58:22;2.50;;;1.00;;
62927;SDS011;51070;52.236;-0.892;2024-02-16T12:00:48;2.20;;;1.20;;
62927;SDS011;51070;52.236;-0.892;2024-02-16T12:03:18;1.60;;;0.90;;
62927;SDS011;51070;52.236;-0.892;2024-02-16T12:05:52;1.80;;;0.60;;
62927;SDS011;51070;52.236;-0.892;2024-02-16T12:08:19;2.10;;;0.80;;
62927;SDS011;51070;52.236;-0.892;2024-02-16T12:10:48;2.00;;;0.60;;
62927;SDS011;51070;52.236;-0.892;2024-02-16T12:13:18;2.60;;;0.60;;
62927;SDS011;51070;52.236;-0.892;2024-02-16T12:15:45;3.60;;;0.70;;
62927;SDS011;51070;52.236;-0.892;2024-02-16T12:21:00;1.30;;;1.10;;
62927;SDS011;51070;52.236;-0.892;2024-02-16T12:23:35;1.30;;;0.60;;
62927;SDS011;51070;52.236;-0.892;2024-02-16T12:26:01;1.30;;;0.60;;
62927;SDS011;51070;52.236;-0.892;2024-02-16T12:28:29;2.40;;;0.70;;
62927;SDS011;51070;52.236;-0.892;2024-02-16T12:30:59;2.10;;;0.90;;
62927;SDS011;51070;52.236;-0.892;2024-02-16T12:33:25;0.40;;;0.40;;
62927;SDS011;51070;52.236;-0.892;2024-02-16T12:35:51;4.00;;;0.70;;
62927;SDS011;51070;52.236;-0.892;2024-02-16T12:38:18;1.60;;;0.60;;
62927;SDS011;51070;52.236;-0.892;2024-02-16T12:40:48;1.90;;;0.60;;
62927;SDS011;51070;52.236;-0.892;2024-02-16T12:43:14;1.90;;;0.70;;
62927;SDS011;51070;52.236;-0.892;2024-02-16T12:45:40;1.10;;;0.60;;
62927;SDS011;51070;52.236;-0.892;2024-02-16T12:48:06;2.10;;;0.70;;
62927;SDS011;51070;52.236;-0.892;2024-02-16T12:50:32;1.10;;;0.70;;
62927;SDS011;51070;52.236;-0.892;2024-02-16T12:52:58;1.60;;;0.50;;
62927;SDS011;51070;52.236;-0.892;2024-02-16T12:55:24;2.90;;;0.70;;
62927;SDS011;51070;52.236;-0.892;2024-02-16T12:57:50;2.10;;;0.90;;
62927;SDS011;51070;52.236;-0.892;2024-02-16T13:00:16;3.10;;;0.50;;
62927;SDS011;51070;52.236;-0.892;2024-02-16T13:02:42;1.60;;;0.60;;
62927;SDS011;51070;52.236;-0.892;2024-02-16T13:05:08;2.50;;;0.60;;
62927;SDS011;51070;52.236;-0.892;2024-02-16T13:07:36;0.90;;;0.50;;
62927;SDS011;51070;52.236;-0.892;2024-02-16T13:12:30;2.20;;;1.00;;
62927;SDS011;51070;52.236;-0.892;2024-02-16T13:14:56;1.80;;;0.80;;
62927;SDS011;51070;52.236;-0.892;2024-02-16T13:17:22;3.20;;;1.80;;
62927;SDS011;51070;52.236;-0.892;2024-02-16T13:19:47;3.50;;;0.60;;
62927;SDS011;51070;52.236;-0.892;2024-02-16T13:22:13;2.00;;;0.60;;
62927;SDS011;51070;52.236;-0.892;2024-02-16T13:24:39;1.80;;;0.70;;
62927;SDS011;51070;52.236;-0.892;2024-02-16T13:27:05;1.70;;;0.60;;
62927;SDS011;51070;52.236;-0.892;2024-02-16T13:29:31;2.20;;;0.70;;
62927;SDS011;51070;52.236;-0.892;2024-02-16T13:31:57;1.40;;;0.50;;
62927;SDS011;51070;52.236;-0.892;2024-02-16T13:34:22;2.90;;;0.70;;
62927;SDS011;51070;52.236;-0.892;2024-02-16T13:36:48;2.40;;;0.60;;
62927;SDS011;51070;52.236;-0.892;2024-02-16T13:39:14;3.20;;;0.70;;
62927;SDS011;51070;52.236;-0.892;2024-02-16T13:41:41;2.30;;;0.60;;
62927;SDS011;51070;52.236;-0.892;2024-02-16T13:44:08;1.60;;;0.50;;
62927;SDS011;51070;52.236;-0.892;2024-02-16T13:46:35;2.70;;;0.90;;
62927;SDS011;51070;52.236;-0.892;2024-02-16T13:49:00;3.40;;;0.70;;
62927;SDS011;51070;52.236;-0.892;2024-02-16T13:51:25;2.20;;;0.70;;
62927;SDS011;51070;52.236;-0.892;2024-02-16T13:53:51;2.60;;;0.80;;
62927;SDS011;51070;52.236;-0.892;2024-02-16T13:56:18;3.00;;;0.60;;
62927;SDS011;51070;52.236;-0.892;2024-02-16T13:58:43;2.30;;;0.80;;
62927;SDS011;51070;52.236;-0.892;2024-02-16T14:01:09;1.10;;;0.60;;
62927;SDS011;51070;52.236;-0.892;2024-02-16T14:03:34;1.80;;;0.80;;
62927;SDS011;51070;52.236;-0.892;2024-02-16T14:06:01;3.50;;;0.70;;
62927;SDS011;51070;52.236;-0.892;2024-02-16T14:08:27;3.70;;;1.20;;
62927;SDS011;51070;52.236;-0.892;2024-02-16T14:10:53;2.50;;;0.80;;
62927;SDS011;51070;52.236;-0.892;2024-02-16T14:13:19;3.40;;;0.90;;
62927;SDS011;51070;52.236;-0.892;2024-02-16T14:15:45;4.80;;;0.80;;
62927;SDS011;51070;52.236;-0.892;2024-02-16T14:18:10;3.10;;;1.40;;
62927;SDS011;51070;52.236;-0.892;2024-02-16T14:20:36;3.60;;;1.30;;
62927;SDS011;51070;52.236;-0.892;2024-02-16T14:23:01;2.10;;;0.70;;
62927;SDS011;51070;52.236;-0.892;2024-02-16T14:25:28;4.40;;;0.90;;
62927;SDS011;51070;52.236;-0.892;2024-02-16T14:27:53;1.40;;;0.90;;
62927;SDS011;51070;52.236;-0.892;2024-02-16T14:30:20;1.90;;;0.70;;
62927;SDS011;51070;52.236;-0.892;2024-02-16T14:32:46;2.30;;;0.80;;
62927;SDS011;51070;52.236;-0.892;2024-02-16T14:35:11;4.50;;;2.40;;
62927;SDS011;51070;52.236;-0.892;2024-02-16T14:37:37;3.80;;;1.10;;
62927;SDS011;51070;52.236;-0.892;2024-02-16T14:40:04;2.00;;;1.20;;
62927;SDS011;51070;52.236;-0.892;2024-02-16T14:42:35;2.70;;;1.00;;
62927;SDS011;51070;52.236;-0.892;2024-02-16T14:45:01;5.80;;;1.30;;